Time;durP1;ratioP1;P1;durP2;ratioP2;P2;SDS_P1;SDS_P2;PMS_P1;PMS_P2;Temp;Humidity;BMP_temperature;BMP_pressure;BME280_temperature;BME280_humidity;BME280_pressure;Samples;Min_cycle;Max_cycle;Signal;HPM_P1;HPM_P2
2023/05/31 00:01:24;;;;;;;;;16.00;16.00;;;;;16.34;76.61;102043.66;5057783;28;46519;-79
2023/05/31 00:03:50;;;;;;;;;16.00;14.33;;;;;16.24;76.45;102016.56;5058987;28;46098;-79
2023/05/31 00:06:15;;;;;;;;;21.00;15.33;;;;;15.67;76.35;101924.34;5056671;28;45646;-79
2023/05/31 00:08:41;;;;;;;;;17.67;15.67;;;;;15.77;76.46;101930.91;5058314;28;46157;-79
2023/05/31 00:11:10;;;;;;;;;17.67;15.00;;;;;15.84;76.53;101953.69;5058917;28;45401;-79
2023/05/31 00:13:40;;;;;;;;;20.67;19.33;;;;;16.03;76.19;101977.63;5055931;28;45510;-81
2023/05/31 00:16:09;;;;;;;;;16.00;16.00;;;;;15.74;76.60;101957.75;5056258;28;45351;-80
2023/05/31 00:18:34;;;;;;;;;20.33;17.33;;;;;15.81;77.23;101982.31;5056703;28;47117;-79
2023/05/31 00:21:00;;;;;;;;;20.67;18.67;;;;;15.82;77.59;101997.38;5074574;28;45367;-80
2023/05/31 00:23:31;;;;;;;;;15.67;15.67;;;;;15.40;77.27;101920.34;5063859;28;45272;-80
2023/05/31 00:25:59;;;;;;;;;18.00;13.67;;;;;15.72;77.63;101991.66;5063810;27;45559;-78
2023/05/31 00:28:27;;;;;;;;;20.00;18.00;;;;;15.82;78.24;102016.06;5060488;28;45512;-80
2023/05/31 00:30:55;;;;;;;;;20.00;15.67;;;;;15.54;77.74;101964.06;5062076;28;45557;-80
2023/05/31 00:33:23;;;;;;;;;18.33;15.00;;;;;15.42;77.55;101935.31;5049793;28;45502;-81
2023/05/31 00:35:49;;;;;;;;;18.00;18.00;;;;;15.46;78.54;101966.22;5070512;28;45561;-80
2023/05/31 00:38:14;;;;;;;;;18.00;17.00;;;;;15.83;78.72;102010.66;5057253;28;45577;-81
2023/05/31 00:40:40;;;;;;;;;22.33;19.00;;;;;15.34;78.80;101932.19;5058918;28;45372;-80
2023/05/31 00:43:05;;;;;;;;;21.00;18.00;;;;;15.87;78.70;102014.88;5051091;28;45317;-80
2023/05/31 00:45:33;;;;;;;;;19.00;16.00;;;;;15.28;78.93;101937.78;5047023;28;45433;-81
2023/05/31 00:48:00;;;;;;;;;18.33;17.00;;;;;15.86;78.99;102029.19;5039737;28;46191;-81
2023/05/31 00:50:29;;;;;;;;;22.33;19.33;;;;;15.85;79.36;102037.25;5036078;28;45329;-81
2023/05/31 00:52:56;;;;;;;;;23.67;19.67;;;;;15.70;79.37;102009.53;5059588;28;45489;-81
2023/05/31 00:55:22;;;;;;;;;12.67;10.67;;;;;15.58;79.31;101991.44;5059985;28;45385;-81
2023/05/31 00:57:48;;;;;;;;;21.00;17.00;;;;;15.61;79.52;101993.97;5055196;28;46056;-80
2023/05/31 01:00:25;;;;;;;;;22.67;19.00;;;;;15.60;79.43;101985.13;5040064;28;45452;-80
2023/05/31 01:02:51;;;;;;;;;19.33;17.67;;;;;15.70;78.90;102025.53;5039385;28;45443;-80
2023/05/31 01:05:17;;;;;;;;;19.67;17.00;;;;;15.21;80.76;101935.50;5057513;28;45599;-80
2023/05/31 01:07:57;;;;;;;;;18.67;16.33;;;;;15.35;81.94;101965.00;5055843;28;45471;-80
2023/05/31 01:13:38;;;;;;;;;24.33;21.33;;;;;15.55;80.29;102010.28;5057352;28;45545;-80
2023/05/31 01:16:38;;;;;;;;;23.00;19.00;;;;;14.98;79.71;101894.00;5052242;28;45583;-80
2023/05/31 01:19:16;;;;;;;;;17.33;15.67;;;;;15.12;79.99;101924.34;5028575;28;46880;-81
2023/05/31 01:22:23;;;;;;;;;14.00;12.33;;;;;15.48;80.18;101980.38;5038085;28;45471;-80
2023/05/31 01:25:30;;;;;;;;;22.00;18.33;;;;;15.59;80.14;101995.84;5040892;28;45424;-81
2023/05/31 01:28:18;;;;;;;;;21.67;17.33;;;;;15.24;80.73;101930.03;5036664;28;45542;-80
2023/05/31 01:30:52;;;;;;;;;20.33;18.00;;;;;14.87;81.42;101883.84;5025156;28;47251;-81
2023/05/31 01:33:30;;;;;;;;;20.67;18.33;;;;;14.84;81.57;101883.13;5039189;28;45634;-81
2023/05/31 01:36:03;;;;;;;;;25.00;19.00;;;;;14.92;81.04;101886.28;5054318;28;45464;-80
2023/05/31 01:38:38;;;;;;;;;20.67;17.67;;;;;15.09;81.05;101921.84;5052620;28;45597;-81
2023/05/31 01:41:12;;;;;;;;;19.00;16.00;;;;;15.05;82.87;101940.72;5049375;28;46034;-80
2023/05/31 01:43:50;;;;;;;;;20.67;17.67;;;;;15.12;81.38;101932.34;5053212;28;45587;-80
2023/05/31 01:46:21;;;;;;;;;19.67;18.67;;;;;14.95;81.67;101921.63;5055067;28;45557;-79
2023/05/31 01:48:57;;;;;;;;;16.67;16.67;;;;;15.12;82.71;101948.31;5054130;28;45686;-79
2023/05/31 01:51:24;;;;;;;;;20.00;18.33;;;;;14.69;81.58;101878.53;5042657;28;47032;-80
2023/05/31 01:53:56;;;;;;;;;20.33;18.67;;;;;14.61;81.26;101865.56;5040814;28;45381;-81
2023/05/31 01:56:25;;;;;;;;;15.67;15.33;;;;;15.01;82.73;101931.13;5056585;28;45501;-78
2023/05/31 01:59:02;;;;;;;;;18.67;17.33;;;;;15.22;81.59;101961.19;5055294;28;45558;-80
2023/05/31 02:01:28;;;;;;;;;26.67;21.00;;;;;14.69;82.77;101895.34;5058648;28;45315;-79
2023/05/31 02:03:54;;;;;;;;;20.00;18.67;;;;;14.65;84.01;101900.91;5041688;28;46099;-82
2023/05/31 02:06:19;;;;;;;;;22.33;15.33;;;;;15.10;83.10;101962.66;5035524;28;45298;-80
2023/05/31 02:08:47;;;;;;;;;18.33;16.33;;;;;14.81;83.27;101921.41;5032193;28;45404;-79
2023/05/31 02:11:34;;;;;;;;;24.33;20.33;;;;;14.97;82.33;101933.09;5038403;28;47292;-80
2023/05/31 02:14:16;;;;;;;;;19.00;16.33;;;;;14.53;83.00;101884.53;5058205;28;45561;-81
2023/05/31 02:16:45;;;;;;;;;23.67;19.00;;;;;15.08;83.57;101953.91;5053320;28;45289;-80
2023/05/31 02:19:31;;;;;;;;;25.00;20.00;;;;;14.65;83.04;101876.94;5055429;28;45356;-81
2023/05/31 02:21:56;;;;;;;;;17.67;17.67;;;;;14.73;83.46;101907.59;5049159;28;47129;-80
2023/05/31 02:27:17;;;;;;;;;22.67;20.00;;;;;14.44;84.34;101863.69;5056253;28;45574;-81
2023/05/31 02:29:49;;;;;;;;;17.33;17.33;;;;;14.96;84.10;101955.31;5038682;28;45582;-81
2023/05/31 02:32:17;;;;;;;;;18.67;17.67;;;;;14.42;84.19;101860.25;5055811;28;46406;-81
2023/05/31 02:35:18;;;;;;;;;18.33;18.00;;;;;14.45;84.36;101867.22;5049616;28;46441;-81
2023/05/31 02:38:07;;;;;;;;;18.67;18.00;;;;;14.45;84.47;101876.06;5029710;28;45558;-81
2023/05/31 02:40:42;;;;;;;;;20.00;16.33;;;;;14.54;85.19;101912.03;5052600;28;46099;-81
2023/05/31 02:43:19;;;;;;;;;20.67;19.33;;;;;14.32;85.98;101864.22;5033930;28;45371;-82
2023/05/31 02:46:03;;;;;;;;;20.67;20.33;;;;;14.52;85.42;101909.47;5054759;28;45434;-81
2023/05/31 02:48:44;;;;;;;;;19.33;18.00;;;;;14.27;84.75;101883.97;5060037;28;45388;-81
2023/05/31 02:51:30;;;;;;;;;;;;;;;;;;;;;
2023/05/31 02:54:11;;;;;;;;;19.67;18.67;;;;;14.17;86.04;101864.91;5057526;28;74616;-82
2023/05/31 02:56:40;;;;;;;;;24.00;20.00;;;;;14.52;86.91;101919.25;5058694;28;45520;-82
2023/05/31 02:59:12;;;;;;;;;21.67;20.00;;;;;14.15;86.80;101856.13;5041797;28;45397;-82
2023/05/31 03:01:58;;;;;;;;;17.67;17.67;;;;;14.58;86.45;101943.78;5057802;28;45606;-82
2023/05/31 03:04:27;;;;;;;;;19.00;18.67;;;;;14.50;87.02;101919.28;5057594;28;48075;-81
2023/05/31 03:10:11;;;;;;;;;21.00;17.00;;;;;14.38;86.08;101900.38;5044007;28;45266;-82
2023/05/31 03:12:39;;;;;;;;;22.67;17.67;;;;;14.53;86.80;101943.13;5055047;28;45765;-81
2023/05/31 03:15:20;;;;;;;;;27.00;20.67;;;;;14.71;88.16;101954.75;5056106;28;46631;-81
2023/05/31 03:17:46;;;;;;;;;20.67;18.67;;;;;14.22;87.98;101864.72;5057741;28;46422;-81
2023/05/31 03:20:24;;;;;;;;;25.00;22.67;;;;;14.34;85.64;101902.28;5048923;28;45644;-81
2023/05/31 03:23:04;;;;;;;;;20.00;19.00;;;;;14.06;87.45;101844.13;5072125;28;45497;-81
2023/05/31 03:25:36;;;;;;;;;19.50;18.00;;;;;14.18;87.41;101871.09;5058248;28;45633;-82
2023/05/31 03:30:57;;;;;;;;;21.67;19.33;;;;;14.63;88.77;101943.56;5038500;28;45448;-81
2023/05/31 03:33:28;;;;;;;;;16.33;16.33;;;;;14.50;88.36;101942.38;5058400;28;45623;-82
2023/05/31 03:36:06;;;;;;;;;23.00;21.67;;;;;14.63;87.80;101958.69;5055489;28;45834;-82
2023/05/31 03:38:46;;;;;;;;;20.33;20.33;;;;;14.27;89.09;101897.28;5056750;28;45439;-82
2023/05/31 03:41:16;;;;;;;;;25.33;22.67;;;;;14.11;88.37;101891.78;5069266;28;45442;-81
2023/05/31 03:43:47;;;;;;;;;25.25;19.25;;;;;14.20;87.93;101899.34;5073809;28;45384;-81
2023/05/31 03:46:33;;;;;;;;;22.33;18.00;;;;;13.92;87.54;101873.13;5060790;28;45771;-81
2023/05/31 03:49:07;;;;;;;;;23.00;20.00;;;;;14.29;88.81;101935.34;5061533;28;45556;-81
2023/05/31 03:51:44;;;;;;;;;23.00;23.00;;;;;14.25;88.75;101923.97;5056191;28;45573;-81
2023/05/31 03:54:18;;;;;;;;;26.00;20.33;;;;;14.12;90.01;101900.63;5058285;28;45491;-80
2023/05/31 03:57:02;;;;;;;;;26.00;19.67;;;;;13.85;89.83;101853.03;5053752;28;46949;-81
2023/05/31 04:00:01;;;;;;;;;;;;;;;;;;;;;
2023/05/31 04:02:38;;;;;;;;;;;;;;;;;;;;;
2023/05/31 04:05:15;;;;;;;;;23.00;20.00;;;;;14.01;89.82;101917.06;5054584;28;71705;-82
2023/05/31 04:07:55;;;;;;;;;22.25;21.25;;;;;13.98;89.01;101898.56;5045359;28;45759;-82
2023/05/31 04:10:41;;;;;;;;;21.75;21.75;;;;;13.77;90.08;101876.47;5056117;28;45435;-82
2023/05/31 04:13:24;;;;;;;;;20.00;18.25;;;;;13.91;88.81;101895.31;5057677;28;45501;-82
2023/05/31 04:16:02;;;;;;;;;;;;;;;;;;;;;
2023/05/31 04:18:36;;;;;;;;;20.00;18.67;;;;;14.26;90.52;101965.63;5048121;28;76150;-81
2023/05/31 04:21:05;;;;;;;;;25.33;19.33;;;;;14.37;90.30;101997.09;5038699;28;45463;-81
2023/05/31 04:23:39;;;;;;;;;22.67;18.00;;;;;13.76;90.53;101889.81;5050849;28;45793;-81
2023/05/31 04:26:18;;;;;;;;;24.33;19.00;;;;;14.34;90.54;101987.47;5057442;28;46435;-80
2023/05/31 04:28:57;;;;;;;;;24.50;21.00;;;;;14.09;90.17;101938.88;5055571;28;46976;-81
2023/05/31 04:31:41;;;;;;;;;;;;;;;;;;;;;
2023/05/31 04:34:30;;;;;;;;;24.67;22.33;;;;;14.22;89.82;101966.69;5057266;28;67267;-81
2023/05/31 04:36:57;;;;;;;;;25.00;22.25;;;;;14.17;89.58;101938.56;5054100;28;45493;-82
2023/05/31 04:39:25;;;;;;;;;22.00;18.33;;;;;13.80;90.27;101878.13;5018921;28;47312;-79
2023/05/31 04:42:24;;;;;;;;;18.33;15.67;;;;;14.03;89.15;101899.25;5017540;28;45342;-81
2023/05/31 04:45:08;;;;;;;;;22.33;20.33;;;;;14.48;89.41;101982.41;5047958;28;45361;-81
2023/05/31 04:47:59;;;;;;;;;18.67;18.33;;;;;14.10;89.28;101914.03;5017955;28;45489;-81
2023/05/31 04:50:40;;;;;;;;;28.00;21.67;;;;;14.44;90.03;101964.84;5015426;28;48235;-81
2023/05/31 04:53:42;;;;;;;;;25.00;20.33;;;;;14.59;89.07;101984.59;5039503;28;45770;-81
2023/05/31 04:56:09;;;;;;;;;30.00;21.67;;;;;14.01;89.41;101864.72;5027844;28;45349;-81
2023/05/31 04:58:44;;;;;;;;;25.00;18.33;;;;;14.30;89.08;101911.31;5013708;28;45484;-82
2023/05/31 05:01:14;;;;;;;;;23.33;19.00;;;;;14.25;88.63;101904.47;5021387;28;46792;-81
2023/05/31 05:03:51;;;;;;;;;24.33;20.00;;;;;14.17;88.31;101886.19;5021528;28;45468;-82
2023/05/31 05:06:49;;;;;;;;;21.33;19.33;;;;;14.47;89.17;101922.09;5045993;28;45391;-82
2023/05/31 05:09:34;;;;;;;;;18.67;18.00;;;;;14.18;87.14;101881.72;5015078;28;45372;-82
2023/05/31 05:12:27;;;;;;;;;25.67;19.00;;;;;14.31;86.86;101880.25;5052370;28;46937;-82
2023/05/31 05:15:01;;;;;;;;;19.33;18.00;;;;;14.46;86.79;101911.53;5014278;28;45357;-82
2023/05/31 05:17:41;;;;;;;;;24.33;20.67;;;;;14.94;86.85;101983.84;5024457;28;45449;-81
2023/05/31 05:20:22;;;;;;;;;15.00;15.00;;;;;14.72;85.74;101915.66;5018648;28;45347;-81
2023/05/31 05:23:11;;;;;;;;;20.33;18.67;;;;;14.84;85.81;101926.59;5032744;28;45468;-81
2023/05/31 05:25:42;;;;;;;;;23.00;20.67;;;;;14.57;85.37;101875.50;5027178;28;45301;-81
2023/05/31 05:28:18;;;;;;;;;;;;;;;;;;;;;
2023/05/31 05:30:56;;;;;;;;;19.00;18.33;;;;;15.15;85.88;101946.47;5046637;28;72619;-82
2023/05/31 05:33:42;;;;;;;;;23.00;19.00;;;;;15.42;83.91;101988.63;5020797;28;47201;-82
2023/05/31 05:36:17;;;;;;;;;22.67;21.00;;;;;14.85;83.51;101876.88;5019131;28;45437;-82
2023/05/31 05:38:58;;;;;;;;;;;;;;;;;;;;;
2023/05/31 05:41:32;;;;;;;;;20.33;17.67;;;;;15.28;82.84;101920.97;5054861;28;71937;-81
2023/05/31 05:44:04;;;;;;;;;16.33;16.00;;;;;15.42;81.80;101931.78;5040732;28;46360;-81
2023/05/31 05:46:32;;;;;;;;;16.67;16.67;;;;;15.40;81.96;101926.53;5035477;28;45539;-81
2023/05/31 05:49:17;;;;;;;;;24.33;21.33;;;;;15.45;80.34;101931.63;5056867;28;45618;-81
2023/05/31 05:52:14;;;;;;;;;18.67;18.00;;;;;15.93;82.26;101987.91;5053679;28;45226;-82
2023/05/31 05:54:47;;;;;;;;;16.33;13.00;;;;;15.68;79.80;101919.84;5036531;28;45514;-81
2023/05/31 05:57:24;;;;;;;;;;;;;;;;;;;;;
2023/05/31 06:00:15;;;;;;;;;21.33;17.67;;;;;16.29;79.24;101987.84;5048590;28;69018;-81
2023/05/31 06:03:30;;;;;;;;;16.00;15.00;;;;;15.98;78.31;101928.97;5020161;28;45526;-82
2023/05/31 06:06:13;;;;;;;;;18.33;16.00;;;;;16.35;77.94;101951.94;5054823;28;47307;-81
2023/05/31 06:08:46;;;;;;;;;18.33;16.67;;;;;16.36;77.75;101924.31;5034896;28;45893;-83
2023/05/31 06:11:18;;;;;;;;;17.00;16.00;;;;;16.12;76.64;101899.75;5035736;28;45505;-81
2023/05/31 06:13:57;;;;;;;;;21.33;16.00;;;;;16.31;75.32;101929.00;5037496;28;45274;-81
2023/05/31 06:16:33;;;;;;;;;17.67;17.33;;;;;16.50;75.24;101932.41;5055305;28;48106;-81
2023/05/31 06:19:21;;;;;;;;;17.00;14.67;;;;;16.47;75.12;101906.75;5037811;28;45726;-81
2023/05/31 06:22:06;;;;;;;;;17.33;16.00;;;;;16.52;73.21;101922.53;5056092;28;45299;-82
2023/05/31 06:24:57;;;;;;;;;15.67;14.33;;;;;16.75;74.03;101942.69;5054239;28;45457;-82
2023/05/31 06:27:46;;;;;;;;;19.00;16.33;;;;;16.87;72.72;101937.53;5055937;28;45593;-81
2023/05/31 06:30:35;;;;;;;;;17.33;16.00;;;;;16.59;73.15;101879.38;5033028;28;45643;-80
2023/05/31 06:33:07;;;;;;;;;16.33;13.33;;;;;17.26;72.27;101977.19;5013412;28;45345;-78
2023/05/31 06:35:42;;;;;;;;;18.33;16.67;;;;;16.70;71.59;101877.94;5026084;28;45732;-78
2023/05/31 06:38:21;;;;;;;;;18.00;16.33;;;;;16.76;71.48;101874.91;5055221;28;45398;-79
2023/05/31 06:40:49;;;;;;;;;8.00;8.00;;;;;16.88;71.12;101895.63;5034742;28;45316;-80
2023/05/31 06:43:25;;;;;;;;;14.00;10.67;;;;;17.14;70.93;101921.75;5036238;28;47296;-78
2023/05/31 06:45:52;;;;;;;;;13.67;13.33;;;;;16.85;69.82;101861.91;5038823;28;45550;-79
2023/05/31 06:48:18;;;;;;;;;14.33;13.00;;;;;17.39;69.79;101939.94;5034203;28;45697;-78
2023/05/31 06:53:43;;;;;;;;;16.33;15.00;;;;;17.67;68.66;101962.34;5061770;28;45471;-79
2023/05/31 06:56:29;;;;;;;;;17.00;14.33;;;;;17.15;68.62;101873.53;5042585;28;45501;-80
2023/05/31 06:59:00;;;;;;;;;19.00;14.00;;;;;17.61;68.83;101921.72;5037703;28;45491;-79
2023/05/31 07:01:35;;;;;;;;;14.67;11.33;;;;;17.96;68.21;101974.03;5036238;28;46656;-78
2023/05/31 07:04:12;;;;;;;;;15.00;15.00;;;;;17.63;67.70;101898.41;5036976;28;45386;-79
2023/05/31 07:06:41;;;;;;;;;18.33;13.67;;;;;17.68;67.17;101904.34;5050448;28;45599;-80
2023/05/31 07:09:38;;;;;;;;;16.67;12.67;;;;;18.24;65.96;101967.88;5039127;28;47207;-80
2023/05/31 07:12:07;;;;;;;;;13.00;11.33;;;;;18.20;67.04;101943.09;5038444;28;45444;-79
2023/05/31 07:14:35;;;;;;;;;18.67;15.33;;;;;18.21;65.29;101915.38;5038774;28;45499;-80
2023/05/31 07:17:21;;;;;;;;;14.00;14.00;;;;;18.22;65.32;101894.81;5039173;28;45523;-80
2023/05/31 07:20:10;;;;;;;;;17.67;15.33;;;;;18.21;65.26;101885.91;5054722;28;45587;-82
2023/05/31 07:22:50;;;;;;;;;15.00;12.67;;;;;18.23;64.68;101873.28;5048360;28;45447;-80
2023/05/31 07:25:28;;;;;;;;;;;;;;;;;;;;;
2023/05/31 07:28:41;;;;;;;;;15.00;14.33;;;;;19.02;64.73;101953.19;5056089;28;73140;-81
2023/05/31 07:31:23;;;;;;;;;12.67;12.33;;;;;18.77;63.78;101881.50;5030516;28;46909;-83
2023/05/31 07:34:00;;;;;;;;;15.33;15.00;;;;;18.81;64.13;101871.47;5056388;28;45466;-83
2023/05/31 07:37:21;;;;;;;;;14.33;12.67;;;;;19.20;62.82;101909.97;5051686;28;45704;-83
2023/05/31 07:40:08;;;;;;;;;13.33;12.00;;;;;19.11;62.33;101859.56;4979609;28;45662;-82
2023/05/31 07:43:44;;;;;;;;;;;;;;;;;;;;;
2023/05/31 07:46:18;;;;;;;;;14.00;12.33;;;;;19.49;60.57;101901.81;4982813;28;45580;-82
2023/05/31 07:52:33;;;;;;;;;16.00;16.00;;;;;19.51;60.92;101856.94;5042229;28;45546;-85
2023/05/31 07:55:35;;;;;;;;;;;;;;;;;;;;;
2023/05/31 07:58:45;;;;;;;;;;;;;;;;;;;;;
2023/05/31 08:01:22;;;;;;;;;13.67;12.00;;;;;20.13;59.71;101936.75;5024763;28;69063;-82
2023/05/31 08:03:54;;;;;;;;;12.33;12.33;;;;;20.12;58.87;101910.00;5014752;28;47177;-87
2023/05/31 08:09:44;;;;;;;;;15.00;13.67;;;;;20.34;58.76;101945.19;5031108;28;45420;-85
2023/05/31 08:12:53;;;;;;;;;;;;;;;;;;;;;
2023/05/31 08:18:35;;;;;;;;;11.67;9.33;;;;;20.69;58.78;101923.88;5042756;28;47454;-84
2023/05/31 08:21:36;;;;;;;;;11.00;11.00;;;;;20.39;57.92;101829.28;5030847;28;45447;-83
2023/05/31 08:24:18;;;;;;;;;11.67;10.67;;;;;20.68;57.04;101868.41;5012928;28;45519;-85
2023/05/31 08:27:02;;;;;;;;;11.67;11.33;;;;;21.13;56.52;101924.25;5036230;28;45306;-82
2023/05/31 08:29:52;;;;;;;;;12.33;10.67;;;;;21.06;55.69;101906.78;5021798;28;46409;-83
2023/05/31 08:39:14;;;;;;;;;;;;;;;;;;;;;
2023/05/31 08:42:33;;;;;;;;;11.33;10.67;;;;;21.39;55.58;101887.31;5077542;28;73986;-85
2023/05/31 08:45:28;;;;;;;;;15.00;10.33;;;;;21.75;56.15;101919.53;5060956;27;45332;-84
2023/05/31 08:48:33;;;;;;;;;;;;;;;;;;;;;
2023/05/31 08:51:38;;;;;;;;;16.33;12.33;;;;;21.37;54.00;101856.94;5072687;28;71569;-89
2023/05/31 08:54:17;;;;;;;;;12.00;10.67;;;;;21.26;54.98;101811.16;5076851;27;46459;-82
2023/05/31 08:57:15;;;;;;;;;11.33;11.33;;;;;21.58;54.62;101847.25;5081430;27;45659;-83
2023/05/31 08:59:58;;;;;;;;;12.00;12.00;;;;;22.15;54.82;101905.72;5055760;28;47512;-82
2023/05/31 09:02:38;;;;;;;;;11.00;11.00;;;;;21.90;53.78;101860.94;5059713;28;45402;-81
2023/05/31 09:05:34;;;;;;;;;11.00;11.00;;;;;21.94;54.61;101835.50;5055719;28;45614;-80
2023/05/31 09:08:43;;;;;;;;;;;;;;;;;;;;;
2023/05/31 09:11:28;;;;;;;;;10.67;10.67;;;;;22.21;53.32;101814.47;5074230;27;69294;-80
2023/05/31 09:13:59;;;;;;;;;12.00;10.33;;;;;22.68;53.38;101861.00;5048871;28;46192;-84
2023/05/31 09:16:32;;;;;;;;;7.67;7.00;;;;;22.60;53.01;101828.41;5058286;28;45698;-84
2023/05/31 09:20:14;;;;;;;;;11.67;11.33;;;;;22.56;51.67;101816.13;5060603;28;45395;-85
2023/05/31 09:26:03;;;;;;;;;12.00;11.00;;;;;22.89;52.07;101815.25;5034886;28;46395;-85
2023/05/31 09:28:47;;;;;;;;;8.67;7.67;;;;;22.87;51.62;101787.56;5054791;28;45579;-84
2023/05/31 09:31:27;;;;;;;;;;;;;;;;;;;;;
2023/05/31 09:34:02;;;;;;;;;8.67;8.67;;;;;23.33;50.81;101804.28;5075054;28;68708;-82
2023/05/31 09:36:56;;;;;;;;;;;;;;;;;;;;;
2023/05/31 09:39:35;;;;;;;;;8.33;6.33;;;;;23.80;49.52;101833.50;5068523;27;74281;-83
2023/05/31 09:42:13;;;;;;;;;8.00;8.00;;;;;23.56;49.12;101765.38;5057882;28;45369;-83
2023/05/31 09:44:49;;;;;;;;;10.00;9.33;;;;;24.21;48.30;101853.44;5059988;28;45309;-83
2023/05/31 09:47:40;;;;;;;;;6.00;6.00;;;;;24.44;49.55;101843.28;5061958;28;45456;-83
2023/05/31 09:50:48;;;;;;;;;10.00;7.00;;;;;24.64;48.89;101855.88;5066329;28;46751;-82
2023/05/31 09:53:42;;;;;;;;;8.67;7.00;;;;;24.30;48.74;101763.38;5064942;28;45358;-83
2023/05/31 09:56:22;;;;;;;;;7.33;7.00;;;;;24.48;47.95;101796.00;5082346;28;45494;-84
2023/05/31 10:01:59;;;;;;;;;11.00;7.00;;;;;24.58;47.41;101768.00;5058416;28;47034;-82
2023/05/31 10:04:33;;;;;;;;;5.00;4.00;;;;;24.65;47.52;101743.94;5059546;28;44802;-83
2023/05/31 10:07:42;;;;;;;;;7.67;5.00;;;;;25.03;46.86;101808.97;5081506;28;45432;-82
2023/05/31 10:10:24;;;;;;;;;;;;;;;;;;;;;
2023/05/31 10:13:03;;;;;;;;;7.00;6.00;;;;;24.96;45.73;101790.75;5058880;27;75257;-81
2023/05/31 10:15:35;;;;;;;;;9.00;6.33;;;;;25.01;44.75;101802.00;5060845;28;45439;-83
2023/05/31 10:18:16;;;;;;;;;3.00;3.00;;;;;24.69;45.09;101750.78;5061132;28;45313;-82
2023/05/31 10:20:52;;;;;;;;;9.00;7.33;;;;;24.80;46.15;101742.56;5079095;28;45533;-80
2023/05/31 10:23:28;;;;;;;;;6.33;5.67;;;;;25.25;45.24;101780.78;5056838;28;45799;-82
2023/05/31 10:26:22;;;;;;;;;6.00;5.67;;;;;25.60;44.40;101816.28;5060854;28;45317;-83
2023/05/31 10:29:00;;;;;;;;;8.00;8.00;;;;;25.75;43.38;101811.25;5047620;28;45539;-82
2023/05/31 10:31:48;;;;;;;;;6.67;6.33;;;;;25.32;43.82;101727.75;5050986;28;45385;-82
2023/05/31 10:34:31;;;;;;;;;7.00;7.00;;;;;25.65;45.04;101734.56;5060545;28;45714;-83
2023/05/31 10:37:14;;;;;;;;;7.67;7.33;;;;;26.10;45.04;101778.03;5057187;28;45485;-83
2023/05/31 10:39:55;;;;;;;;;10.00;10.00;;;;;26.33;42.36;101812.81;5059513;28;45660;-83
2023/05/31 10:42:57;;;;;;;;;9.00;6.00;;;;;26.05;42.59;101751.38;5049822;28;45594;-84
2023/05/31 10:45:43;;;;;;;;;2.00;2.00;;;;;26.09;41.69;101730.22;5065790;28;47586;-86
2023/05/31 10:48:47;;;;;;;;;6.00;6.00;;;;;26.57;41.88;101792.41;5056602;28;45465;-83
2023/05/31 10:51:34;;;;;;;;;5.00;5.00;;;;;26.70;41.63;101809.19;5065957;27;45326;-85
2023/05/31 10:54:16;;;;;;;;;;;;;;;;;;;;;
2023/05/31 10:57:10;;;;;;;;;6.33;6.00;;;;;26.21;40.85;101704.66;5075849;28;74343;-82
2023/05/31 10:59:51;;;;;;;;;6.00;6.00;;;;;26.56;40.95;101758.13;5059885;28;45526;-82
2023/05/31 11:02:23;;;;;;;;;7.00;5.00;;;;;26.83;40.61;101786.09;5063179;28;45388;-82
2023/05/31 11:05:26;;;;;;;;;6.00;6.00;;;;;26.54;41.84;101733.84;5078780;28;45407;-83
2023/05/31 11:07:58;;;;;;;;;6.33;6.00;;;;;26.48;40.96;101703.75;5050344;28;45579;-83
2023/05/31 11:10:40;;;;;;;;;8.00;7.00;;;;;26.72;41.30;101737.44;5068199;28;45335;-84
2023/05/31 11:13:40;;;;;;;;;7.67;6.33;;;;;26.63;41.78;101719.38;5061885;28;45582;-83
2023/05/31 11:16:17;;;;;;;;;5.33;5.33;;;;;26.81;39.00;101739.28;5047024;28;45365;-84
2023/05/31 11:19:06;;;;;;;;;6.67;5.00;;;;;26.66;40.89;101693.78;5061057;28;48197;-83
2023/05/31 11:21:54;;;;;;;;;8.00;8.00;;;;;27.02;40.56;101705.53;5078012;28;45477;-82
2023/05/31 11:28:13;;;;;;;;;6.67;6.67;;;;;27.72;40.77;101758.88;5061108;28;45447;-83
2023/05/31 11:30:46;;;;;;;;;5.00;4.67;;;;;27.46;40.28;101704.53;5057849;28;47160;-83
2023/05/31 11:33:53;;;;;;;;;;;;;;;;;;;;;
2023/05/31 11:36:48;;;;;;;;;;;;;;;;;;;;;
2023/05/31 11:39:36;;;;;;;;;6.67;2.00;;;;;27.56;38.65;101727.00;5067616;28;71860;-83
2023/05/31 11:42:18;;;;;;;;;6.00;6.00;;;;;27.42;39.54;101706.66;5063264;28;46264;-84
2023/05/31 11:45:10;;;;;;;;;6.00;6.00;;;;;27.79;39.33;101744.50;5068344;28;45595;-83
2023/05/31 11:48:02;;;;;;;;;5.67;5.67;;;;;27.98;39.24;101764.31;5080484;28;45473;-85
2023/05/31 11:50:54;;;;;;;;;4.00;4.00;;;;;27.71;39.38;101698.25;5049622;28;45475;-84
2023/05/31 11:54:05;;;;;;;;;4.00;4.00;;;;;28.22;37.32;101757.16;5060240;28;45685;-85
2023/05/31 11:56:45;;;;;;;;;9.67;7.00;;;;;27.81;39.55;101689.97;5074746;28;45505;-84
2023/05/31 11:59:32;;;;;;;;;6.67;6.67;;;;;27.83;39.15;101679.75;5062744;28;45385;-82
2023/05/31 12:02:31;;;;;;;;;6.00;6.00;;;;;27.89;38.62;101695.44;5058883;28;45389;-82
2023/05/31 12:05:15;;;;;;;;;6.00;6.00;;;;;28.21;39.27;101733.66;5061129;28;45605;-82
2023/05/31 12:08:06;;;;;;;;;7.33;7.00;;;;;28.37;39.54;101703.78;5062203;27;45457;-83
2023/05/31 12:10:38;;;;;;;;;6.00;5.00;;;;;28.88;38.34;101769.97;5066119;27;45554;-82
2023/05/31 12:16:47;;;;;;;;;8.00;7.00;;;;;28.80;37.77;101704.59;5078898;28;45827;-83
2023/05/31 12:19:21;;;;;;;;;7.33;6.33;;;;;29.13;38.12;101746.31;5057103;28;45533;-82
2023/05/31 12:22:05;;;;;;;;;5.00;5.00;;;;;28.93;38.29;101678.56;5059322;27;45657;-84
2023/05/31 12:32:19;;;;;;;;;;;;;;;;;;;;;
2023/05/31 12:35:40;;;;;;;;;8.00;7.00;;;;;29.48;38.67;101697.78;5076865;28;67994;-89
2023/05/31 12:38:28;;;;;;;;;7.00;7.00;;;;;29.83;37.49;101731.13;5074358;28;45390;-89
2023/05/31 12:41:12;;;;;;;;;8.33;6.33;;;;;29.64;37.52;101675.09;5062354;28;46418;-88
2023/05/31 12:43:55;;;;;;;;;7.33;6.00;;;;;29.81;35.77;101695.81;5061966;28;45364;-85
2023/05/31 12:46:52;;;;;;;;;;;;;;;;;;;;;
2023/05/31 12:49:27;;;;;;;;;9.67;8.00;;;;;30.07;35.41;101703.78;5080165;28;71549;-84
2023/05/31 12:52:38;;;;;;;;;;;;;;;;;;;;;
2023/05/31 13:01:43;;;;;;;;;7.00;7.00;;;;;30.16;36.95;101636.34;5082823;28;45573;-85
2023/05/31 13:04:32;;;;;;;;;8.00;8.00;;;;;30.59;35.84;101693.13;5055620;28;47623;-86
2023/05/31 13:07:06;;;;;;;;;8.33;8.33;;;;;30.53;36.38;101641.09;5067669;28;45358;-85
2023/05/31 13:09:53;;;;;;;;;;;;;;;;;;;;;
2023/05/31 13:12:52;;;;;;;;;;;;;;;;;;;;;
2023/05/31 13:15:41;;;;;;;;;;;;;;;;;;;;;
2023/05/31 13:18:50;;;;;;;;;8.00;7.00;;;;;31.70;35.62;101696.09;5070460;28;71075;-84
2023/05/31 13:21:38;;;;;;;;;;;;;;;;;;;;;
2023/05/31 13:24:10;;;;;;;;;8.67;6.00;;;;;31.87;34.85;101608.13;5074944;27;72976;-86
2023/05/31 13:30:15;;;;;;;;;;;;;;;;;;;;;
2023/05/31 13:33:33;;;;;;;;;;;;;;;;;;;;;
2023/05/31 13:36:31;;;;;;;;;;;;;;;;;;;;;
2023/05/31 13:39:29;;;;;;;;;;;;;;;;;;;;;
2023/05/31 13:42:22;;;;;;;;;10.00;6.67;;;;;32.74;31.91;101627.25;5070930;28;72741;-90
2023/05/31 13:48:40;;;;;;;;;7.00;6.33;;;;;32.86;29.55;101642.09;5082171;28;45872;-86
2023/05/31 13:52:08;;;;;;;;;6.33;5.00;;;;;32.95;32.20;101687.53;5058398;28;46300;-84
2023/05/31 14:01:19;;;;;;;;;6.00;6.00;;;;;33.35;32.27;101667.63;5073554;27;45617;-84
2023/05/31 14:04:28;;;;;;;;;6.67;5.33;;;;;33.52;30.45;101629.75;5058235;28;46535;-85
2023/05/31 14:07:12;;;;;;;;;;;;;;;;;;;;;
2023/05/31 14:10:12;;;;;;;;;5.67;5.67;;;;;33.62;29.81;101588.25;5065227;28;67280;-86
2023/05/31 14:12:51;;;;;;;;;7.33;4.00;;;;;33.88;30.51;101610.31;5050432;28;45342;-87
2023/05/31 14:15:42;;;;;;;;;4.33;4.33;;;;;33.71;28.26;101603.50;5044851;28;46487;-86
2023/05/31 14:18:32;;;;;;;;;5.00;5.00;;;;;33.60;30.07;101587.59;5060927;28;45309;-86
2023/05/31 14:21:17;;;;;;;;;5.00;5.00;;;;;34.19;30.62;101659.28;5058849;28;45581;-86
2023/05/31 14:23:49;;;;;;;;;5.33;5.33;;;;;33.99;31.01;101572.16;5058751;28;45501;-85